sensor_id;sensor_type;location;lat;lon;timestamp;P1;durP1;ratioP1;P2;durP2;ratioP2
33184;SDS011;19550;42.872;25.494;2022-07-22T00:00:15;9.45;;;5.47;;
33184;SDS011;19550;42.872;25.494;2022-07-22T00:02:42;8.93;;;6.18;;
33184;SDS011;19550;42.872;25.494;2022-07-22T00:05:09;11.80;;;5.97;;
33184;SDS011;19550;42.872;25.494;2022-07-22T00:07:37;11.65;;;6.00;;
33184;SDS011;19550;42.872;25.494;2022-07-22T00:10:05;9.07;;;5.60;;
33184;SDS011;19550;42.872;25.494;2022-07-22T00:12:33;11.00;;;6.10;;
33184;SDS011;19550;42.872;25.494;2022-07-22T00:15:01;8.13;;;6.10;;
33184;SDS011;19550;42.872;25.494;2022-07-22T00:17:29;7.75;;;5.75;;
33184;SDS011;19550;42.872;25.494;2022-07-22T00:19:56;8.75;;;5.80;;
33184;SDS011;19550;42.872;25.494;2022-07-22T00:22:23;8.57;;;5.97;;
33184;SDS011;19550;42.872;25.494;2022-07-22T00:24:50;7.97;;;5.63;;
33184;SDS011;19550;42.872;25.494;2022-07-22T00:27:17;10.88;;;5.90;;
33184;SDS011;19550;42.872;25.494;2022-07-22T00:29:44;8.93;;;6.18;;
33184;SDS011;19550;42.872;25.494;2022-07-22T00:32:11;8.68;;;5.95;;
33184;SDS011;19550;42.872;25.494;2022-07-22T00:34:40;9.00;;;6.15;;
33184;SDS011;19550;42.872;25.494;2022-07-22T00:37:07;10.18;;;6.28;;
33184;SDS011;19550;42.872;25.494;2022-07-22T00:39:34;9.77;;;5.65;;
33184;SDS011;19550;42.872;25.494;2022-07-22T00:42:02;9.25;;;6.20;;
33184;SDS011;19550;42.872;25.494;2022-07-22T00:44:30;7.22;;;5.90;;
33184;SDS011;19550;42.872;25.494;2022-07-22T00:46:57;11.32;;;6.78;;
33184;SDS011;19550;42.872;25.494;2022-07-22T00:49:24;9.20;;;6.35;;
33184;SDS011;19550;42.872;25.494;2022-07-22T00:51:53;6.95;;;5.97;;
33184;SDS011;19550;42.872;25.494;2022-07-22T00:54:20;9.88;;;6.40;;
33184;SDS011;19550;42.872;25.494;2022-07-22T00:56:47;9.85;;;6.57;;
33184;SDS011;19550;42.872;25.494;2022-07-22T00:59:14;8.23;;;5.88;;
33184;SDS011;19550;42.872;25.494;2022-07-22T01:01:42;8.77;;;5.95;;
33184;SDS011;19550;42.872;25.494;2022-07-22T01:04:09;13.45;;;6.90;;
33184;SDS011;19550;42.872;25.494;2022-07-22T01:06:36;9.40;;;6.28;;
33184;SDS011;19550;42.872;25.494;2022-07-22T01:09:04;10.10;;;7.55;;
33184;SDS011;19550;42.872;25.494;2022-07-22T01:11:31;9.20;;;6.13;;
33184;SDS011;19550;42.872;25.494;2022-07-22T01:13:58;8.02;;;5.95;;
33184;SDS011;19550;42.872;25.494;2022-07-22T01:16:25;7.25;;;6.25;;
33184;SDS011;19550;42.872;25.494;2022-07-22T01:18:52;11.43;;;6.82;;
33184;SDS011;19550;42.872;25.494;2022-07-22T01:21:21;6.85;;;5.85;;
33184;SDS011;19550;42.872;25.494;2022-07-22T01:23:48;6.50;;;5.80;;
33184;SDS011;19550;42.872;25.494;2022-07-22T01:26:15;10.10;;;6.93;;
33184;SDS011;19550;42.872;25.494;2022-07-22T01:28:43;7.57;;;6.35;;
33184;SDS011;19550;42.872;25.494;2022-07-22T01:31:11;9.05;;;6.35;;
33184;SDS011;19550;42.872;25.494;2022-07-22T01:33:38;8.57;;;6.72;;
33184;SDS011;19550;42.872;25.494;2022-07-22T01:36:05;8.63;;;6.30;;
33184;SDS011;19550;42.872;25.494;2022-07-22T01:38:34;9.55;;;6.28;;
33184;SDS011;19550;42.872;25.494;2022-07-22T01:41:02;9.82;;;7.28;;
33184;SDS011;19550;42.872;25.494;2022-07-22T01:43:30;8.48;;;6.72;;
33184;SDS011;19550;42.872;25.494;2022-07-22T01:45:58;8.40;;;6.70;;
33184;SDS011;19550;42.872;25.494;2022-07-22T01:48:25;8.15;;;6.32;;
33184;SDS011;19550;42.872;25.494;2022-07-22T01:50:52;10.63;;;6.65;;
33184;SDS011;19550;42.872;25.494;2022-07-22T01:53:19;7.68;;;6.40;;
33184;SDS011;19550;42.872;25.494;2022-07-22T01:55:47;9.02;;;6.53;;
33184;SDS011;19550;42.872;25.494;2022-07-22T01:58:15;7.82;;;5.97;;
33184;SDS011;19550;42.872;25.494;2022-07-22T02:00:42;6.95;;;6.25;;
33184;SDS011;19550;42.872;25.494;2022-07-22T02:03:09;8.90;;;6.40;;
33184;SDS011;19550;42.872;25.494;2022-07-22T02:05:36;11.95;;;6.57;;
33184;SDS011;19550;42.872;25.494;2022-07-22T02:08:05;8.32;;;6.43;;
33184;SDS011;19550;42.872;25.494;2022-07-22T02:10:33;7.77;;;6.50;;
33184;SDS011;19550;42.872;25.494;2022-07-22T02:13:02;7.35;;;6.20;;
33184;SDS011;19550;42.872;25.494;2022-07-22T02:15:29;10.23;;;6.10;;
33184;SDS011;19550;42.872;25.494;2022-07-22T02:17:57;8.30;;;7.00;;
33184;SDS011;19550;42.872;25.494;2022-07-22T02:20:24;9.68;;;6.32;;
33184;SDS011;19550;42.872;25.494;2022-07-22T02:22:51;9.73;;;6.72;;
33184;SDS011;19550;42.872;25.494;2022-07-22T02:25:18;8.27;;;6.90;;
33184;SDS011;19550;42.872;25.494;2022-07-22T02:27:45;10.98;;;6.50;;
33184;SDS011;19550;42.872;25.494;2022-07-22T02:30:13;8.30;;;6.15;;
33184;SDS011;19550;42.872;25.494;2022-07-22T02:32:40;12.05;;;6.80;;
33184;SDS011;19550;42.872;25.494;2022-07-22T02:35:07;8.63;;;6.60;;
33184;SDS011;19550;42.872;25.494;2022-07-22T02:37:35;9.65;;;6.40;;
33184;SDS011;19550;42.872;25.494;2022-07-22T02:40:04;7.55;;;6.28;;
33184;SDS011;19550;42.872;25.494;2022-07-22T02:42:32;8.30;;;6.70;;
33184;SDS011;19550;42.872;25.494;2022-07-22T02:45:00;10.98;;;6.65;;
33184;SDS011;19550;42.872;25.494;2022-07-22T02:47:28;10.93;;;7.20;;
33184;SDS011;19550;42.872;25.494;2022-07-22T02:49:55;11.20;;;7.03;;
33184;SDS011;19550;42.872;25.494;2022-07-22T02:52:22;9.90;;;7.13;;
33184;SDS011;19550;42.872;25.494;2022-07-22T02:54:49;10.50;;;7.30;;
33184;SDS011;19550;42.872;25.494;2022-07-22T02:57:16;9.02;;;6.75;;
33184;SDS011;19550;42.872;25.494;2022-07-22T02:59:43;12.45;;;7.18;;
33184;SDS011;19550;42.872;25.494;2022-07-22T03:02:10;10.85;;;7.47;;
33184;SDS011;19550;42.872;25.494;2022-07-22T03:04:39;10.15;;;7.10;;
33184;SDS011;19550;42.872;25.494;2022-07-22T03:07:06;10.25;;;7.15;;
33184;SDS011;19550;42.872;25.494;2022-07-22T03:09:33;10.75;;;7.10;;
33184;SDS011;19550;42.872;25.494;2022-07-22T03:12:00;12.40;;;7.57;;
33184;SDS011;19550;42.872;25.494;2022-07-22T03:14:27;10.90;;;6.95;;
33184;SDS011;19550;42.872;25.494;2022-07-22T03:16:54;9.38;;;6.75;;
33184;SDS011;19550;42.872;25.494;2022-07-22T03:19:21;12.90;;;7.70;;
33184;SDS011;19550;42.872;25.494;2022-07-22T03:21:49;11.80;;;7.57;;
33184;SDS011;19550;42.872;25.494;2022-07-22T03:24:16;10.63;;;7.07;;
33184;SDS011;19550;42.872;25.494;2022-07-22T03:26:43;9.15;;;7.03;;
33184;SDS011;19550;42.872;25.494;2022-07-22T03:29:10;10.45;;;7.38;;
33184;SDS011;19550;42.872;25.494;2022-07-22T03:31:37;8.57;;;7.40;;
33184;SDS011;19550;42.872;25.494;2022-07-22T03:34:04;8.73;;;7.20;;
33184;SDS011;19550;42.872;25.494;2022-07-22T03:36:32;8.30;;;6.72;;
33184;SDS011;19550;42.872;25.494;2022-07-22T03:39:00;13.00;;;6.47;;
33184;SDS011;19550;42.872;25.494;2022-07-22T03:41:27;9.48;;;7.43;;
33184;SDS011;19550;42.872;25.494;2022-07-22T03:43:54;10.85;;;7.15;;
33184;SDS011;19550;42.872;25.494;2022-07-22T03:46:21;9.60;;;6.57;;
33184;SDS011;19550;42.872;25.494;2022-07-22T03:48:48;14.35;;;7.63;;
33184;SDS011;19550;42.872;25.494;2022-07-22T03:51:15;9.60;;;7.75;;
33184;SDS011;19550;42.872;25.494;2022-07-22T03:53:42;9.25;;;7.60;;
33184;SDS011;19550;42.872;25.494;2022-07-22T03:56:11;10.90;;;6.97;;
33184;SDS011;19550;42.872;25.494;2022-07-22T03:58:38;11.77;;;7.50;;
33184;SDS011;19550;42.872;25.494;2022-07-22T04:01:05;12.27;;;7.90;;
33184;SDS011;19550;42.872;25.494;2022-07-22T04:03:32;11.38;;;8.02;;
33184;SDS011;19550;42.872;25.494;2022-07-22T04:05:59;19.52;;;9.05;;
33184;SDS011;19550;42.872;25.494;2022-07-22T04:08:26;12.32;;;8.25;;
33184;SDS011;19550;42.872;25.494;2022-07-22T04:10:53;12.57;;;8.38;;
33184;SDS011;19550;42.872;25.494;2022-07-22T04:13:21;20.33;;;8.90;;
33184;SDS011;19550;42.872;25.494;2022-07-22T04:15:48;19.58;;;8.43;;
33184;SDS011;19550;42.872;25.494;2022-07-22T04:18:15;12.65;;;7.20;;
33184;SDS011;19550;42.872;25.494;2022-07-22T04:20:43;10.13;;;7.03;;
33184;SDS011;19550;42.872;25.494;2022-07-22T04:23:10;9.80;;;7.40;;
33184;SDS011;19550;42.872;25.494;2022-07-22T04:25:37;15.38;;;8.43;;
33184;SDS011;19550;42.872;25.494;2022-07-22T04:28:04;16.63;;;7.70;;
33184;SDS011;19550;42.872;25.494;2022-07-22T04:30:32;14.27;;;7.30;;
33184;SDS011;19550;42.872;25.494;2022-07-22T04:32:59;16.90;;;7.82;;
33184;SDS011;19550;42.872;25.494;2022-07-22T04:35:26;15.50;;;8.25;;
33184;SDS011;19550;42.872;25.494;2022-07-22T04:37:53;14.18;;;7.90;;
33184;SDS011;19550;42.872;25.494;2022-07-22T04:40:21;10.80;;;7.07;;
33184;SDS011;19550;42.872;25.494;2022-07-22T04:42:48;12.05;;;7.60;;
33184;SDS011;19550;42.872;25.494;2022-07-22T04:45:15;12.77;;;8.18;;
33184;SDS011;19550;42.872;25.494;2022-07-22T04:47:43;14.27;;;6.97;;
33184;SDS011;19550;42.872;25.494;2022-07-22T04:50:10;9.43;;;7.32;;
33184;SDS011;19550;42.872;25.494;2022-07-22T04:52:37;14.93;;;7.35;;
33184;SDS011;19550;42.872;25.494;2022-07-22T04:55:05;15.60;;;7.47;;
33184;SDS011;19550;42.872;25.494;2022-07-22T04:57:33;9.02;;;6.72;;
33184;SDS011;19550;42.872;25.494;2022-07-22T05:00:00;11.82;;;7.13;;
33184;SDS011;19550;42.872;25.494;2022-07-22T05:02:27;13.95;;;7.65;;
33184;SDS011;19550;42.872;25.494;2022-07-22T05:04:55;18.38;;;8.50;;
33184;SDS011;19550;42.872;25.494;2022-07-22T05:07:22;13.25;;;8.30;;
33184;SDS011;19550;42.872;25.494;2022-07-22T05:09:49;12.13;;;7.15;;
33184;SDS011;19550;42.872;25.494;2022-07-22T05:12:16;10.13;;;7.63;;
33184;SDS011;19550;42.872;25.494;2022-07-22T05:14:43;12.98;;;7.78;;
33184;SDS011;19550;42.872;25.494;2022-07-22T05:17:10;11.88;;;7.40;;
33184;SDS011;19550;42.872;25.494;2022-07-22T05:19:38;14.57;;;7.00;;
33184;SDS011;19550;42.872;25.494;2022-07-22T05:22:07;16.08;;;7.65;;
33184;SDS011;19550;42.872;25.494;2022-07-22T05:24:34;16.98;;;7.63;;
33184;SDS011;19550;42.872;25.494;2022-07-22T05:27:01;16.92;;;8.15;;
33184;SDS011;19550;42.872;25.494;2022-07-22T05:29:28;18.27;;;7.55;;
33184;SDS011;19550;42.872;25.494;2022-07-22T05:31:55;21.42;;;8.10;;
33184;SDS011;19550;42.872;25.494;2022-07-22T05:34:22;14.05;;;7.35;;
33184;SDS011;19550;42.872;25.494;2022-07-22T05:36:50;19.35;;;8.15;;
33184;SDS011;19550;42.872;25.494;2022-07-22T05:39:18;18.17;;;7.95;;
33184;SDS011;19550;42.872;25.494;2022-07-22T05:41:45;18.38;;;8.68;;
33184;SDS011;19550;42.872;25.494;2022-07-22T05:44:13;21.25;;;7.72;;
33184;SDS011;19550;42.872;25.494;2022-07-22T05:46:40;20.67;;;8.43;;
33184;SDS011;19550;42.872;25.494;2022-07-22T05:49:07;19.17;;;7.47;;
33184;SDS011;19550;42.872;25.494;2022-07-22T05:51:34;14.40;;;7.28;;
33184;SDS011;19550;42.872;25.494;2022-07-22T05:54:01;24.77;;;8.93;;
33184;SDS011;19550;42.872;25.494;2022-07-22T05:56:30;46.92;;;9.40;;
33184;SDS011;19550;42.872;25.494;2022-07-22T05:58:57;28.77;;;8.40;;
33184;SDS011;19550;42.872;25.494;2022-07-22T06:01:25;34.50;;;8.57;;
33184;SDS011;19550;42.872;25.494;2022-07-22T06:03:52;43.60;;;9.05;;
33184;SDS011;19550;42.872;25.494;2022-07-22T06:06:19;28.35;;;9.05;;
33184;SDS011;19550;42.872;25.494;2022-07-22T06:08:46;27.17;;;8.73;;
33184;SDS011;19550;42.872;25.494;2022-07-22T06:11:13;39.35;;;9.57;;
33184;SDS011;19550;42.872;25.494;2022-07-22T06:13:42;40.35;;;9.45;;
33184;SDS011;19550;42.872;25.494;2022-07-22T06:16:09;41.55;;;9.23;;
33184;SDS011;19550;42.872;25.494;2022-07-22T06:18:36;37.58;;;9.25;;
33184;SDS011;19550;42.872;25.494;2022-07-22T06:21:03;33.08;;;8.57;;
33184;SDS011;19550;42.872;25.494;2022-07-22T06:23:32;25.60;;;7.47;;
33184;SDS011;19550;42.872;25.494;2022-07-22T06:26:00;16.05;;;6.85;;
33184;SDS011;19550;42.872;25.494;2022-07-22T06:28:27;14.88;;;6.60;;
33184;SDS011;19550;42.872;25.494;2022-07-22T06:30:55;20.48;;;7.28;;
33184;SDS011;19550;42.872;25.494;2022-07-22T06:33:22;29.55;;;8.10;;
33184;SDS011;19550;42.872;25.494;2022-07-22T06:35:49;15.77;;;6.72;;
33184;SDS011;19550;42.872;25.494;2022-07-22T06:38:16;24.35;;;6.13;;
33184;SDS011;19550;42.872;25.494;2022-07-22T06:40:43;11.38;;;5.53;;
33184;SDS011;19550;42.872;25.494;2022-07-22T06:43:10;15.90;;;5.70;;
33184;SDS011;19550;42.872;25.494;2022-07-22T06:45:38;11.50;;;5.32;;
33184;SDS011;19550;42.872;25.494;2022-07-22T06:48:06;13.40;;;5.97;;
33184;SDS011;19550;42.872;25.494;2022-07-22T06:50:33;11.68;;;5.57;;
33184;SDS011;19550;42.872;25.494;2022-07-22T06:53:00;11.95;;;5.45;;
33184;SDS011;19550;42.872;25.494;2022-07-22T06:55:27;12.48;;;5.03;;
33184;SDS011;19550;42.872;25.494;2022-07-22T06:57:54;14.70;;;5.88;;
33184;SDS011;19550;42.872;25.494;2022-07-22T07:00:21;23.80;;;6.03;;
33184;SDS011;19550;42.872;25.494;2022-07-22T07:02:48;13.82;;;6.07;;
33184;SDS011;19550;42.872;25.494;2022-07-22T07:05:17;11.82;;;5.50;;
33184;SDS011;19550;42.872;25.494;2022-07-22T07:07:44;10.07;;;5.70;;
33184;SDS011;19550;42.872;25.494;2022-07-22T07:10:11;7.28;;;5.28;;
33184;SDS011;19550;42.872;25.494;2022-07-22T07:12:40;12.55;;;5.43;;
33184;SDS011;19550;42.872;25.494;2022-07-22T07:15:07;12.60;;;5.75;;
33184;SDS011;19550;42.872;25.494;2022-07-22T07:17:35;11.90;;;5.97;;
33184;SDS011;19550;42.872;25.494;2022-07-22T07:20:04;9.55;;;5.95;;
33184;SDS011;19550;42.872;25.494;2022-07-22T07:22:34;27.58;;;6.68;;
33184;SDS011;19550;42.872;25.494;2022-07-22T07:25:02;12.43;;;5.95;;
33184;SDS011;19550;42.872;25.494;2022-07-22T07:27:30;11.27;;;5.50;;
33184;SDS011;19550;42.872;25.494;2022-07-22T07:29:57;16.60;;;5.90;;
33184;SDS011;19550;42.872;25.494;2022-07-22T07:32:24;12.63;;;6.72;;
33184;SDS011;19550;42.872;25.494;2022-07-22T07:34:51;12.93;;;5.78;;
33184;SDS011;19550;42.872;25.494;2022-07-22T07:37:19;14.75;;;6.22;;
33184;SDS011;19550;42.872;25.494;2022-07-22T07:39:47;14.15;;;5.05;;
33184;SDS011;19550;42.872;25.494;2022-07-22T07:42:14;14.67;;;5.77;;
33184;SDS011;19550;42.872;25.494;2022-07-22T07:44:41;9.10;;;5.47;;
33184;SDS011;19550;42.872;25.494;2022-07-22T07:47:08;8.18;;;5.60;;
33184;SDS011;19550;42.872;25.494;2022-07-22T07:49:35;13.45;;;6.15;;
33184;SDS011;19550;42.872;25.494;2022-07-22T07:52:02;11.45;;;5.97;;
33184;SDS011;19550;42.872;25.494;2022-07-22T07:54:30;13.55;;;5.88;;
33184;SDS011;19550;42.872;25.494;2022-07-22T07:56:58;19.35;;;5.63;;
33184;SDS011;19550;42.872;25.494;2022-07-22T07:59:25;10.95;;;5.82;;
33184;SDS011;19550;42.872;25.494;2022-07-22T08:01:52;12.73;;;5.30;;
33184;SDS011;19550;42.872;25.494;2022-07-22T08:04:19;8.32;;;5.35;;
33184;SDS011;19550;42.872;25.494;2022-07-22T08:06:46;10.50;;;5.72;;
33184;SDS011;19550;42.872;25.494;2022-07-22T08:09:13;9.85;;;5.65;;
33184;SDS011;19550;42.872;25.494;2022-07-22T08:11:42;14.50;;;5.43;;
33184;SDS011;19550;42.872;25.494;2022-07-22T08:14:10;14.30;;;5.78;;
33184;SDS011;19550;42.872;25.494;2022-07-22T08:16:38;12.05;;;5.30;;
33184;SDS011;19550;42.872;25.494;2022-07-22T08:19:05;9.10;;;5.25;;
33184;SDS011;19550;42.872;25.494;2022-07-22T08:21:32;11.32;;;5.15;;
33184;SDS011;19550;42.872;25.494;2022-07-22T08:23:59;16.00;;;5.97;;
33184;SDS011;19550;42.872;25.494;2022-07-22T08:26:26;14.30;;;5.63;;
33184;SDS011;19550;42.872;25.494;2022-07-22T08:28:53;9.73;;;5.07;;
33184;SDS011;19550;42.872;25.494;2022-07-22T08:31:22;17.08;;;6.32;;
33184;SDS011;19550;42.872;25.494;2022-07-22T08:33:49;8.90;;;5.28;;
33184;SDS011;19550;42.872;25.494;2022-07-22T08:36:16;11.90;;;5.63;;
33184;SDS011;19550;42.872;25.494;2022-07-22T08:38:43;9.27;;;5.43;;
33184;SDS011;19550;42.872;25.494;2022-07-22T08:41:10;7.63;;;5.22;;
33184;SDS011;19550;42.872;25.494;2022-07-22T08:43:40;9.88;;;5.05;;
33184;SDS011;19550;42.872;25.494;2022-07-22T08:46:09;7.55;;;5.28;;
33184;SDS011;19550;42.872;25.494;2022-07-22T08:48:38;11.32;;;5.50;;
33184;SDS011;19550;42.872;25.494;2022-07-22T08:51:06;13.93;;;5.55;;
33184;SDS011;19550;42.872;25.494;2022-07-22T08:53:33;10.93;;;5.93;;
33184;SDS011;19550;42.872;25.494;2022-07-22T08:56:00;10.90;;;5.05;;
33184;SDS011;19550;42.872;25.494;2022-07-22T08:58:28;10.05;;;5.47;;
33184;SDS011;19550;42.872;25.494;2022-07-22T09:01:05;7.68;;;5.00;;
33184;SDS011;19550;42.872;25.494;2022-07-22T09:03:34;8.02;;;4.88;;
33184;SDS011;19550;42.872;25.494;2022-07-22T09:06:12;19.10;;;5.18;;
33184;SDS011;19550;42.872;25.494;2022-07-22T09:08:55;11.40;;;5.63;;
33184;SDS011;19550;42.872;25.494;2022-07-22T09:11:24;11.38;;;4.70;;
33184;SDS011;19550;42.872;25.494;2022-07-22T09:13:53;7.43;;;4.85;;
33184;SDS011;19550;42.872;25.494;2022-07-22T09:16:43;9.52;;;5.70;;
33184;SDS011;19550;42.872;25.494;2022-07-22T09:19:13;10.20;;;5.15;;
33184;SDS011;19550;42.872;25.494;2022-07-22T09:24:09;10.40;;;4.80;;
33184;SDS011;19550;42.872;25.494;2022-07-22T09:26:53;10.43;;;4.85;;
33184;SDS011;19550;42.872;25.494;2022-07-22T09:29:21;9.70;;;4.82;;
33184;SDS011;19550;42.872;25.494;2022-07-22T09:31:49;9.63;;;4.40;;
33184;SDS011;19550;42.872;25.494;2022-07-22T09:34:25;9.67;;;4.43;;
33184;SDS011;19550;42.872;25.494;2022-07-22T09:36:53;8.00;;;4.72;;
33184;SDS011;19550;42.872;25.494;2022-07-22T09:39:24;9.05;;;4.70;;
33184;SDS011;19550;42.872;25.494;2022-07-22T09:41:56;9.25;;;5.05;;
33184;SDS011;19550;42.872;25.494;2022-07-22T09:44:23;19.73;;;5.10;;
33184;SDS011;19550;42.872;25.494;2022-07-22T09:46:50;11.05;;;4.97;;
33184;SDS011;19550;42.872;25.494;2022-07-22T09:49:30;5.97;;;4.50;;
33184;SDS011;19550;42.872;25.494;2022-07-22T09:51:59;9.38;;;4.95;;
33184;SDS011;19550;42.872;25.494;2022-07-22T09:54:27;8.32;;;5.10;;
33184;SDS011;19550;42.872;25.494;2022-07-22T09:56:55;11.23;;;5.05;;
33184;SDS011;19550;42.872;25.494;2022-07-22T09:59:22;7.35;;;5.28;;
33184;SDS011;19550;42.872;25.494;2022-07-22T10:01:50;6.60;;;4.80;;
33184;SDS011;19550;42.872;25.494;2022-07-22T10:04:21;9.23;;;4.60;;
33184;SDS011;19550;42.872;25.494;2022-07-22T10:06:52;6.60;;;4.85;;
33184;SDS011;19550;42.872;25.494;2022-07-22T10:09:21;12.18;;;4.68;;
33184;SDS011;19550;42.872;25.494;2022-07-22T10:11:48;8.73;;;4.50;;
33184;SDS011;19550;42.872;25.494;2022-07-22T10:14:16;9.55;;;4.70;;
33184;SDS011;19550;42.872;25.494;2022-07-22T10:16:44;7.23;;;4.63;;
33184;SDS011;19550;42.872;25.494;2022-07-22T10:19:12;6.30;;;4.82;;
33184;SDS011;19550;42.872;25.494;2022-07-22T10:21:40;6.45;;;4.47;;
33184;SDS011;19550;42.872;25.494;2022-07-22T10:24:13;7.53;;;4.45;;
33184;SDS011;19550;42.872;25.494;2022-07-22T10:26:47;9.85;;;5.03;;
33184;SDS011;19550;42.872;25.494;2022-07-22T10:29:28;8.57;;;4.72;;
33184;SDS011;19550;42.872;25.494;2022-07-22T10:37:49;9.48;;;4.57;;
33184;SDS011;19550;42.872;25.494;2022-07-22T10:40:19;6.18;;;4.28;;
33184;SDS011;19550;42.872;25.494;2022-07-22T10:43:03;8.40;;;4.70;;
33184;SDS011;19550;42.872;25.494;2022-07-22T10:45:32;6.13;;;4.38;;
33184;SDS011;19550;42.872;25.494;2022-07-22T10:48:01;6.15;;;4.05;;
33184;SDS011;19550;42.872;25.494;2022-07-22T10:50:43;7.45;;;4.18;;
33184;SDS011;19550;42.872;25.494;2022-07-22T10:53:19;8.13;;;4.90;;
33184;SDS011;19550;42.872;25.494;2022-07-22T10:56:03;6.38;;;4.35;;
33184;SDS011;19550;42.872;25.494;2022-07-22T11:01:25;5.35;;;3.85;;
33184;SDS011;19550;42.872;25.494;2022-07-22T11:03:54;15.25;;;4.40;;
33184;SDS011;19550;42.872;25.494;2022-07-22T11:06:24;8.68;;;4.03;;
33184;SDS011;19550;42.872;25.494;2022-07-22T11:08:53;10.23;;;4.22;;
33184;SDS011;19550;42.872;25.494;2022-07-22T11:14:16;6.25;;;4.43;;
33184;SDS011;19550;42.872;25.494;2022-07-22T11:16:54;11.77;;;4.15;;
33184;SDS011;19550;42.872;25.494;2022-07-22T11:19:23;6.40;;;4.27;;
33184;SDS011;19550;42.872;25.494;2022-07-22T11:21:53;7.45;;;4.18;;
33184;SDS011;19550;42.872;25.494;2022-07-22T11:24:21;13.15;;;4.00;;
33184;SDS011;19550;42.872;25.494;2022-07-22T11:26:51;6.22;;;3.63;;
33184;SDS011;19550;42.872;25.494;2022-07-22T11:29:24;4.93;;;3.80;;
33184;SDS011;19550;42.872;25.494;2022-07-22T11:31:53;7.88;;;4.15;;
33184;SDS011;19550;42.872;25.494;2022-07-22T11:34:20;7.50;;;3.50;;
33184;SDS011;19550;42.872;25.494;2022-07-22T11:36:49;8.15;;;3.63;;
33184;SDS011;19550;42.872;25.494;2022-07-22T11:39:18;9.27;;;3.90;;
33184;SDS011;19550;42.872;25.494;2022-07-22T11:41:46;5.53;;;3.42;;
33184;SDS011;19550;42.872;25.494;2022-07-22T11:44:18;4.43;;;3.47;;
33184;SDS011;19550;42.872;25.494;2022-07-22T11:46:46;5.50;;;3.53;;
33184;SDS011;19550;42.872;25.494;2022-07-22T11:49:15;10.20;;;4.15;;
33184;SDS011;19550;42.872;25.494;2022-07-22T11:51:43;6.20;;;3.90;;
33184;SDS011;19550;42.872;25.494;2022-07-22T11:54:10;6.18;;;3.60;;
33184;SDS011;19550;42.872;25.494;2022-07-22T11:56:38;9.38;;;3.75;;
33184;SDS011;19550;42.872;25.494;2022-07-22T11:59:06;10.15;;;4.05;;
33184;SDS011;19550;42.872;25.494;2022-07-22T12:04:04;7.17;;;3.47;;
33184;SDS011;19550;42.872;25.494;2022-07-22T12:09:03;9.73;;;4.15;;
33184;SDS011;19550;42.872;25.494;2022-07-22T12:11:32;8.05;;;3.72;;
33184;SDS011;19550;42.872;25.494;2022-07-22T12:14:04;6.82;;;3.42;;
33184;SDS011;19550;42.872;25.494;2022-07-22T12:16:32;6.72;;;3.80;;
33184;SDS011;19550;42.872;25.494;2022-07-22T12:19:02;7.97;;;4.03;;
33184;SDS011;19550;42.872;25.494;2022-07-22T12:21:31;8.20;;;4.07;;
33184;SDS011;19550;42.872;25.494;2022-07-22T12:24:00;11.82;;;3.92;;
33184;SDS011;19550;42.872;25.494;2022-07-22T12:26:40;10.15;;;3.50;;
33184;SDS011;19550;42.872;25.494;2022-07-22T12:29:16;5.60;;;3.65;;
33184;SDS011;19550;42.872;25.494;2022-07-22T12:31:46;8.25;;;3.47;;
33184;SDS011;19550;42.872;25.494;2022-07-22T12:34:16;7.03;;;3.45;;
33184;SDS011;19550;42.872;25.494;2022-07-22T12:36:55;6.40;;;4.00;;
33184;SDS011;19550;42.872;25.494;2022-07-22T12:39:23;8.02;;;3.55;;
33184;SDS011;19550;42.872;25.494;2022-07-22T12:41:50;7.57;;;3.50;;
33184;SDS011;19550;42.872;25.494;2022-07-22T12:44:19;9.18;;;3.53;;
33184;SDS011;19550;42.872;25.494;2022-07-22T12:46:47;5.05;;;3.67;;
33184;SDS011;19550;42.872;25.494;2022-07-22T12:49:18;17.90;;;3.75;;
33184;SDS011;19550;42.872;25.494;2022-07-22T12:52:09;10.13;;;4.00;;
33184;SDS011;19550;42.872;25.494;2022-07-22T12:54:38;10.60;;;4.25;;
33184;SDS011;19550;42.872;25.494;2022-07-22T12:57:07;6.90;;;3.38;;
33184;SDS011;19550;42.872;25.494;2022-07-22T12:59:35;7.97;;;3.63;;
33184;SDS011;19550;42.872;25.494;2022-07-22T13:02:03;12.55;;;3.88;;
33184;SDS011;19550;42.872;25.494;2022-07-22T13:04:31;6.53;;;3.80;;
33184;SDS011;19550;42.872;25.494;2022-07-22T13:06:58;6.38;;;3.08;;
33184;SDS011;19550;42.872;25.494;2022-07-22T13:09:25;6.95;;;3.40;;
33184;SDS011;19550;42.872;25.494;2022-07-22T13:11:52;7.20;;;3.20;;
33184;SDS011;19550;42.872;25.494;2022-07-22T13:14:20;9.77;;;3.70;;
33184;SDS011;19550;42.872;25.494;2022-07-22T13:16:47;5.28;;;2.95;;
33184;SDS011;19550;42.872;25.494;2022-07-22T13:19:14;7.88;;;3.50;;
33184;SDS011;19550;42.872;25.494;2022-07-22T13:21:42;7.10;;;3.47;;
33184;SDS011;19550;42.872;25.494;2022-07-22T13:24:10;6.43;;;3.42;;
33184;SDS011;19550;42.872;25.494;2022-07-22T13:26:37;5.68;;;2.90;;
33184;SDS011;19550;42.872;25.494;2022-07-22T13:29:05;7.22;;;3.10;;
33184;SDS011;19550;42.872;25.494;2022-07-22T13:31:32;4.55;;;2.95;;
33184;SDS011;19550;42.872;25.494;2022-07-22T13:33:59;8.30;;;3.42;;
33184;SDS011;19550;42.872;25.494;2022-07-22T13:36:26;10.02;;;2.97;;
33184;SDS011;19550;42.872;25.494;2022-07-22T13:38:59;7.03;;;3.33;;
33184;SDS011;19550;42.872;25.494;2022-07-22T13:41:27;5.78;;;3.10;;
33184;SDS011;19550;42.872;25.494;2022-07-22T13:43:54;15.50;;;3.33;;
33184;SDS011;19550;42.872;25.494;2022-07-22T13:46:21;5.68;;;2.80;;
33184;SDS011;19550;42.872;25.494;2022-07-22T13:48:48;6.60;;;3.20;;
33184;SDS011;19550;42.872;25.494;2022-07-22T13:51:15;8.75;;;3.30;;
33184;SDS011;19550;42.872;25.494;2022-07-22T13:53:42;9.13;;;2.75;;
33184;SDS011;19550;42.872;25.494;2022-07-22T13:56:10;8.15;;;3.00;;
33184;SDS011;19550;42.872;25.494;2022-07-22T13:58:37;9.45;;;3.35;;
33184;SDS011;19550;42.872;25.494;2022-07-22T14:01:06;7.10;;;2.72;;
33184;SDS011;19550;42.872;25.494;2022-07-22T14:03:35;5.90;;;2.80;;
33184;SDS011;19550;42.872;25.494;2022-07-22T14:06:02;6.75;;;2.83;;
33184;SDS011;19550;42.872;25.494;2022-07-22T14:08:29;5.68;;;2.70;;
33184;SDS011;19550;42.872;25.494;2022-07-22T14:10:56;6.03;;;2.75;;
33184;SDS011;19550;42.872;25.494;2022-07-22T14:13:25;8.25;;;3.10;;
33184;SDS011;19550;42.872;25.494;2022-07-22T14:15:52;8.82;;;3.05;;
33184;SDS011;19550;42.872;25.494;2022-07-22T14:18:19;5.43;;;2.78;;
33184;SDS011;19550;42.872;25.494;2022-07-22T14:20:46;9.38;;;3.45;;
33184;SDS011;19550;42.872;25.494;2022-07-22T14:23:14;8.05;;;2.85;;
33184;SDS011;19550;42.872;25.494;2022-07-22T14:25:45;9.48;;;2.67;;
33184;SDS011;19550;42.872;25.494;2022-07-22T14:28:12;4.82;;;2.75;;
33184;SDS011;19550;42.872;25.494;2022-07-22T14:30:41;8.43;;;2.85;;
33184;SDS011;19550;42.872;25.494;2022-07-22T14:33:08;4.05;;;2.70;;
33184;SDS011;19550;42.872;25.494;2022-07-22T14:35:35;4.00;;;2.63;;
33184;SDS011;19550;42.872;25.494;2022-07-22T14:38:02;10.15;;;2.70;;
33184;SDS011;19550;42.872;25.494;2022-07-22T14:40:29;6.88;;;2.85;;
33184;SDS011;19550;42.872;25.494;2022-07-22T14:42:56;10.18;;;3.05;;
33184;SDS011;19550;42.872;25.494;2022-07-22T14:45:23;5.15;;;2.58;;
33184;SDS011;19550;42.872;25.494;2022-07-22T14:47:51;4.50;;;2.70;;
33184;SDS011;19550;42.872;25.494;2022-07-22T14:50:18;3.27;;;2.70;;
33184;SDS011;19550;42.872;25.494;2022-07-22T14:52:45;9.43;;;2.63;;